sensor_id;sensor_type;location;lat;lon;timestamp;temperature;humidity
19868;DHT22;10096;51.112;6.776;2022-07-22T00:00:06;19.50;99.90
19868;DHT22;10096;51.112;6.776;2022-07-22T00:02:34;19.50;99.90
19868;DHT22;10096;51.112;6.776;2022-07-22T00:05:01;19.50;99.90
19868;DHT22;10096;51.112;6.776;2022-07-22T00:07:28;19.40;99.90
19868;DHT22;10096;51.112;6.776;2022-07-22T00:09:55;19.30;99.90
19868;DHT22;10096;51.112;6.776;2022-07-22T00:12:23;19.30;99.90
19868;DHT22;10096;51.112;6.776;2022-07-22T00:14:50;19.40;99.90
19868;DHT22;10096;51.112;6.776;2022-07-22T00:17:17;19.30;99.90
19868;DHT22;10096;51.112;6.776;2022-07-22T00:19:44;19.30;99.90
19868;DHT22;10096;51.112;6.776;2022-07-22T00:22:11;19.30;99.90
19868;DHT22;10096;51.112;6.776;2022-07-22T00:24:38;19.20;99.90
19868;DHT22;10096;51.112;6.776;2022-07-22T00:27:05;19.30;99.90
19868;DHT22;10096;51.112;6.776;2022-07-22T00:29:33;19.30;99.90
19868;DHT22;10096;51.112;6.776;2022-07-22T00:32:00;19.50;99.90
19868;DHT22;10096;51.112;6.776;2022-07-22T00:34:28;19.50;99.90
19868;DHT22;10096;51.112;6.776;2022-07-22T00:36:55;19.20;99.90
19868;DHT22;10096;51.112;6.776;2022-07-22T00:39:22;19.20;99.90
19868;DHT22;10096;51.112;6.776;2022-07-22T00:41:49;19.10;99.90
19868;DHT22;10096;51.112;6.776;2022-07-22T00:44:16;19.20;99.90
19868;DHT22;10096;51.112;6.776;2022-07-22T00:46:44;19.20;99.90
19868;DHT22;10096;51.112;6.776;2022-07-22T00:49:11;19.20;99.90
19868;DHT22;10096;51.112;6.776;2022-07-22T00:51:38;19.20;99.90
19868;DHT22;10096;51.112;6.776;2022-07-22T00:54:06;19.10;99.90
19868;DHT22;10096;51.112;6.776;2022-07-22T00:56:33;19.40;99.90
19868;DHT22;10096;51.112;6.776;2022-07-22T00:59:04;19.10;99.90
19868;DHT22;10096;51.112;6.776;2022-07-22T01:01:31;19.10;99.90
19868;DHT22;10096;51.112;6.776;2022-07-22T01:03:59;19.20;99.90
19868;DHT22;10096;51.112;6.776;2022-07-22T01:06:26;19.20;99.90
19868;DHT22;10096;51.112;6.776;2022-07-22T01:08:54;19.10;99.90
19868;DHT22;10096;51.112;6.776;2022-07-22T01:11:21;19.10;99.90
19868;DHT22;10096;51.112;6.776;2022-07-22T01:13:48;19.20;99.90
19868;DHT22;10096;51.112;6.776;2022-07-22T01:16:16;19.40;99.90
19868;DHT22;10096;51.112;6.776;2022-07-22T01:18:44;19.20;99.90
19868;DHT22;10096;51.112;6.776;2022-07-22T01:21:13;19.30;99.90
19868;DHT22;10096;51.112;6.776;2022-07-22T01:23:41;19.50;99.90
19868;DHT22;10096;51.112;6.776;2022-07-22T01:26:08;19.30;99.90
19868;DHT22;10096;51.112;6.776;2022-07-22T01:28:35;19.30;99.90
19868;DHT22;10096;51.112;6.776;2022-07-22T01:31:02;19.40;99.90
19868;DHT22;10096;51.112;6.776;2022-07-22T01:33:29;19.30;99.90
19868;DHT22;10096;51.112;6.776;2022-07-22T01:35:57;19.30;99.90
19868;DHT22;10096;51.112;6.776;2022-07-22T01:38:25;19.20;99.90
19868;DHT22;10096;51.112;6.776;2022-07-22T01:40:52;19.20;99.90
19868;DHT22;10096;51.112;6.776;2022-07-22T01:43:19;19.40;99.90
19868;DHT22;10096;51.112;6.776;2022-07-22T01:45:48;19.30;99.90
19868;DHT22;10096;51.112;6.776;2022-07-22T01:48:15;19.20;99.90
19868;DHT22;10096;51.112;6.776;2022-07-22T01:50:43;19.20;99.90
19868;DHT22;10096;51.112;6.776;2022-07-22T01:53:10;19.30;99.90
19868;DHT22;10096;51.112;6.776;2022-07-22T01:55:39;19.30;99.90
19868;DHT22;10096;51.112;6.776;2022-07-22T01:58:06;19.20;99.90
19868;DHT22;10096;51.112;6.776;2022-07-22T02:00:33;19.20;99.90
19868;DHT22;10096;51.112;6.776;2022-07-22T02:03:00;19.10;99.90
19868;DHT22;10096;51.112;6.776;2022-07-22T02:05:27;19.20;99.90
19868;DHT22;10096;51.112;6.776;2022-07-22T02:07:59;19.20;99.90
19868;DHT22;10096;51.112;6.776;2022-07-22T02:10:26;19.20;99.90
19868;DHT22;10096;51.112;6.776;2022-07-22T02:12:54;19.20;99.90
19868;DHT22;10096;51.112;6.776;2022-07-22T02:15:21;19.20;99.90
19868;DHT22;10096;51.112;6.776;2022-07-22T02:17:48;19.40;99.90
19868;DHT22;10096;51.112;6.776;2022-07-22T02:20:15;19.40;99.90
19868;DHT22;10096;51.112;6.776;2022-07-22T02:22:42;19.20;99.90
19868;DHT22;10096;51.112;6.776;2022-07-22T02:25:10;19.30;99.90
19868;DHT22;10096;51.112;6.776;2022-07-22T02:27:37;19.10;99.90
19868;DHT22;10096;51.112;6.776;2022-07-22T02:30:07;19.20;99.90
19868;DHT22;10096;51.112;6.776;2022-07-22T02:32:34;19.20;99.90
19868;DHT22;10096;51.112;6.776;2022-07-22T02:35:01;19.20;99.90
19868;DHT22;10096;51.112;6.776;2022-07-22T02:37:29;19.20;99.90
19868;DHT22;10096;51.112;6.776;2022-07-22T02:39:55;19.40;99.90
19868;DHT22;10096;51.112;6.776;2022-07-22T02:42:22;19.10;99.90
19868;DHT22;10096;51.112;6.776;2022-07-22T02:44:49;19.00;99.90
19868;DHT22;10096;51.112;6.776;2022-07-22T02:47:18;19.00;99.90
19868;DHT22;10096;51.112;6.776;2022-07-22T02:49:45;19.20;99.90
19868;DHT22;10096;51.112;6.776;2022-07-22T02:52:11;19.10;99.90
19868;DHT22;10096;51.112;6.776;2022-07-22T02:54:39;19.10;99.90
19868;DHT22;10096;51.112;6.776;2022-07-22T02:57:06;19.20;99.90
19868;DHT22;10096;51.112;6.776;2022-07-22T02:59:33;19.20;99.90
19868;DHT22;10096;51.112;6.776;2022-07-22T03:02:00;19.10;99.90
19868;DHT22;10096;51.112;6.776;2022-07-22T03:04:29;19.10;99.90
19868;DHT22;10096;51.112;6.776;2022-07-22T03:06:55;19.20;99.90
19868;DHT22;10096;51.112;6.776;2022-07-22T03:09:22;19.00;99.90
19868;DHT22;10096;51.112;6.776;2022-07-22T03:11:49;19.00;99.90
19868;DHT22;10096;51.112;6.776;2022-07-22T03:14:16;19.00;99.90
19868;DHT22;10096;51.112;6.776;2022-07-22T03:16:44;19.00;99.90
19868;DHT22;10096;51.112;6.776;2022-07-22T03:19:11;19.00;99.90
19868;DHT22;10096;51.112;6.776;2022-07-22T03:21:39;19.00;99.90
19868;DHT22;10096;51.112;6.776;2022-07-22T03:24:06;18.90;99.90
19868;DHT22;10096;51.112;6.776;2022-07-22T03:26:33;19.00;99.90
19868;DHT22;10096;51.112;6.776;2022-07-22T03:29:00;18.80;99.90
19868;DHT22;10096;51.112;6.776;2022-07-22T03:31:27;18.80;99.90
19868;DHT22;10096;51.112;6.776;2022-07-22T03:33:54;18.80;99.90
19868;DHT22;10096;51.112;6.776;2022-07-22T03:36:21;18.80;99.90
19868;DHT22;10096;51.112;6.776;2022-07-22T03:38:49;18.80;99.90
19868;DHT22;10096;51.112;6.776;2022-07-22T03:41:16;18.80;99.90
19868;DHT22;10096;51.112;6.776;2022-07-22T03:43:44;18.60;99.90
19868;DHT22;10096;51.112;6.776;2022-07-22T03:46:10;18.70;99.90
19868;DHT22;10096;51.112;6.776;2022-07-22T03:48:37;18.60;99.90
19868;DHT22;10096;51.112;6.776;2022-07-22T03:51:04;18.50;99.90
19868;DHT22;10096;51.112;6.776;2022-07-22T03:53:31;18.50;99.90
19868;DHT22;10096;51.112;6.776;2022-07-22T03:56:00;18.40;99.90
19868;DHT22;10096;51.112;6.776;2022-07-22T03:58:27;18.50;99.90
19868;DHT22;10096;51.112;6.776;2022-07-22T04:00:54;18.30;99.90
19868;DHT22;10096;51.112;6.776;2022-07-22T04:03:21;18.30;99.90
19868;DHT22;10096;51.112;6.776;2022-07-22T04:05:48;18.40;99.90
19868;DHT22;10096;51.112;6.776;2022-07-22T04:08:17;18.50;99.90
19868;DHT22;10096;51.112;6.776;2022-07-22T04:10:45;18.50;99.90
19868;DHT22;10096;51.112;6.776;2022-07-22T04:13:13;18.50;99.90
19868;DHT22;10096;51.112;6.776;2022-07-22T04:15:40;18.50;99.90
19868;DHT22;10096;51.112;6.776;2022-07-22T04:18:07;18.50;99.90
19868;DHT22;10096;51.112;6.776;2022-07-22T04:20:34;18.50;99.90
19868;DHT22;10096;51.112;6.776;2022-07-22T04:23:01;18.70;99.90
19868;DHT22;10096;51.112;6.776;2022-07-22T04:25:28;18.50;99.90
19868;DHT22;10096;51.112;6.776;2022-07-22T04:27:54;18.60;99.90
19868;DHT22;10096;51.112;6.776;2022-07-22T04:30:23;18.50;99.90
19868;DHT22;10096;51.112;6.776;2022-07-22T04:32:50;18.50;99.90
19868;DHT22;10096;51.112;6.776;2022-07-22T04:35:16;18.40;99.90
19868;DHT22;10096;51.112;6.776;2022-07-22T04:37:43;18.40;99.90
19868;DHT22;10096;51.112;6.776;2022-07-22T04:40:11;18.40;99.90
19868;DHT22;10096;51.112;6.776;2022-07-22T04:42:38;18.40;99.90
19868;DHT22;10096;51.112;6.776;2022-07-22T04:45:05;18.40;99.90
19868;DHT22;10096;51.112;6.776;2022-07-22T04:47:34;18.50;99.90
19868;DHT22;10096;51.112;6.776;2022-07-22T04:50:00;18.50;99.90
19868;DHT22;10096;51.112;6.776;2022-07-22T04:52:27;18.50;99.90
19868;DHT22;10096;51.112;6.776;2022-07-22T04:54:54;18.90;99.90
19868;DHT22;10096;51.112;6.776;2022-07-22T04:57:24;18.80;99.90
19868;DHT22;10096;51.112;6.776;2022-07-22T04:59:51;18.70;99.90
19868;DHT22;10096;51.112;6.776;2022-07-22T05:02:18;18.70;99.90
19868;DHT22;10096;51.112;6.776;2022-07-22T05:04:47;18.70;99.90
19868;DHT22;10096;51.112;6.776;2022-07-22T05:07:14;18.80;99.90
19868;DHT22;10096;51.112;6.776;2022-07-22T05:09:40;18.80;99.90
19868;DHT22;10096;51.112;6.776;2022-07-22T05:12:08;18.90;99.90
19868;DHT22;10096;51.112;6.776;2022-07-22T05:14:35;18.80;99.90
19868;DHT22;10096;51.112;6.776;2022-07-22T05:17:02;18.90;99.90
19868;DHT22;10096;51.112;6.776;2022-07-22T05:19:28;18.80;99.90
19868;DHT22;10096;51.112;6.776;2022-07-22T05:21:57;18.90;99.90
19868;DHT22;10096;51.112;6.776;2022-07-22T05:24:24;18.90;99.90
19868;DHT22;10096;51.112;6.776;2022-07-22T05:26:51;19.00;99.90
19868;DHT22;10096;51.112;6.776;2022-07-22T05:29:18;19.00;99.90
19868;DHT22;10096;51.112;6.776;2022-07-22T05:31:45;18.70;99.90
19868;DHT22;10096;51.112;6.776;2022-07-22T05:34:12;18.50;99.90
19868;DHT22;10096;51.112;6.776;2022-07-22T05:36:38;18.60;99.90
19868;DHT22;10096;51.112;6.776;2022-07-22T05:39:07;18.40;99.90
19868;DHT22;10096;51.112;6.776;2022-07-22T05:41:33;18.30;99.90
19868;DHT22;10096;51.112;6.776;2022-07-22T05:44:00;18.30;99.90
19868;DHT22;10096;51.112;6.776;2022-07-22T05:46:27;18.40;99.90
19868;DHT22;10096;51.112;6.776;2022-07-22T05:48:54;18.50;99.90
19868;DHT22;10096;51.112;6.776;2022-07-22T05:51:21;18.40;99.90
19868;DHT22;10096;51.112;6.776;2022-07-22T05:53:49;18.40;99.90
19868;DHT22;10096;51.112;6.776;2022-07-22T05:56:17;18.60;99.90
19868;DHT22;10096;51.112;6.776;2022-07-22T05:58:44;18.40;99.90
19868;DHT22;10096;51.112;6.776;2022-07-22T06:01:12;18.40;99.90
19868;DHT22;10096;51.112;6.776;2022-07-22T06:03:38;18.50;99.90
19868;DHT22;10096;51.112;6.776;2022-07-22T06:06:05;18.40;99.90
19868;DHT22;10096;51.112;6.776;2022-07-22T06:08:34;18.50;99.90
19868;DHT22;10096;51.112;6.776;2022-07-22T06:11:01;18.50;99.90
19868;DHT22;10096;51.112;6.776;2022-07-22T06:13:30;18.60;99.90
19868;DHT22;10096;51.112;6.776;2022-07-22T06:15:58;18.70;99.90
19868;DHT22;10096;51.112;6.776;2022-07-22T06:18:25;19.00;99.90
19868;DHT22;10096;51.112;6.776;2022-07-22T06:20:52;18.90;99.90
19868;DHT22;10096;51.112;6.776;2022-07-22T06:23:19;19.00;58.80
19868;DHT22;10096;51.112;6.776;2022-07-22T06:25:46;18.80;97.20
19868;DHT22;10096;51.112;6.776;2022-07-22T06:28:13;18.90;96.80
19868;DHT22;10096;51.112;6.776;2022-07-22T06:30:43;18.90;99.90
19868;DHT22;10096;51.112;6.776;2022-07-22T06:33:10;18.90;74.50
19868;DHT22;10096;51.112;6.776;2022-07-22T06:35:38;19.00;98.00
19868;DHT22;10096;51.112;6.776;2022-07-22T06:38:06;19.00;75.00
19868;DHT22;10096;51.112;6.776;2022-07-22T06:40:33;19.10;78.50
19868;DHT22;10096;51.112;6.776;2022-07-22T06:43:00;19.10;99.90
19868;DHT22;10096;51.112;6.776;2022-07-22T06:45:27;19.20;90.90
19868;DHT22;10096;51.112;6.776;2022-07-22T06:47:55;19.40;29.20
19868;DHT22;10096;51.112;6.776;2022-07-22T06:50:23;19.30;14.00
19868;DHT22;10096;51.112;6.776;2022-07-22T06:52:50;19.40;1.00
19868;DHT22;10096;51.112;6.776;2022-07-22T06:55:19;19.50;1.00
19868;DHT22;10096;51.112;6.776;2022-07-22T06:57:46;19.40;1.00
19868;DHT22;10096;51.112;6.776;2022-07-22T07:00:13;19.60;1.00
19868;DHT22;10096;51.112;6.776;2022-07-22T07:02:41;19.40;1.00
19868;DHT22;10096;51.112;6.776;2022-07-22T07:05:10;19.40;1.00
19868;DHT22;10096;51.112;6.776;2022-07-22T07:07:37;19.60;1.00
19868;DHT22;10096;51.112;6.776;2022-07-22T07:10:04;19.70;1.00
19868;DHT22;10096;51.112;6.776;2022-07-22T07:12:31;19.70;1.00
19868;DHT22;10096;51.112;6.776;2022-07-22T07:14:58;19.60;1.00
19868;DHT22;10096;51.112;6.776;2022-07-22T07:17:25;19.70;1.00
19868;DHT22;10096;51.112;6.776;2022-07-22T07:19:52;19.60;1.00
19868;DHT22;10096;51.112;6.776;2022-07-22T07:22:20;19.50;1.00
19868;DHT22;10096;51.112;6.776;2022-07-22T07:24:47;19.60;1.00
19868;DHT22;10096;51.112;6.776;2022-07-22T07:27:14;19.60;1.00
19868;DHT22;10096;51.112;6.776;2022-07-22T07:29:41;19.60;1.00
19868;DHT22;10096;51.112;6.776;2022-07-22T07:32:08;19.70;1.00
19868;DHT22;10096;51.112;6.776;2022-07-22T07:34:35;19.70;1.00
19868;DHT22;10096;51.112;6.776;2022-07-22T07:37:02;19.70;1.00
19868;DHT22;10096;51.112;6.776;2022-07-22T07:39:30;19.70;1.00
19868;DHT22;10096;51.112;6.776;2022-07-22T07:41:57;19.90;1.00
19868;DHT22;10096;51.112;6.776;2022-07-22T07:44:24;19.80;1.00
19868;DHT22;10096;51.112;6.776;2022-07-22T07:46:54;19.90;1.00
19868;DHT22;10096;51.112;6.776;2022-07-22T07:49:21;20.00;1.00
19868;DHT22;10096;51.112;6.776;2022-07-22T07:51:50;20.00;1.00
19868;DHT22;10096;51.112;6.776;2022-07-22T07:54:17;20.20;1.00
19868;DHT22;10096;51.112;6.776;2022-07-22T07:56:46;20.30;1.00
19868;DHT22;10096;51.112;6.776;2022-07-22T07:59:13;20.40;1.00
19868;DHT22;10096;51.112;6.776;2022-07-22T08:01:42;20.20;1.00
19868;DHT22;10096;51.112;6.776;2022-07-22T08:04:09;20.10;1.00
19868;DHT22;10096;51.112;6.776;2022-07-22T08:06:36;20.20;1.00
19868;DHT22;10096;51.112;6.776;2022-07-22T08:09:03;20.20;1.00
19868;DHT22;10096;51.112;6.776;2022-07-22T08:11:30;20.20;1.00
19868;DHT22;10096;51.112;6.776;2022-07-22T08:13:58;20.40;1.00
19868;DHT22;10096;51.112;6.776;2022-07-22T08:16:25;20.30;1.00
19868;DHT22;10096;51.112;6.776;2022-07-22T08:18:52;20.50;1.00
19868;DHT22;10096;51.112;6.776;2022-07-22T08:21:19;20.50;1.00
19868;DHT22;10096;51.112;6.776;2022-07-22T08:23:48;20.70;1.00
19868;DHT22;10096;51.112;6.776;2022-07-22T08:26:15;20.70;1.00
19868;DHT22;10096;51.112;6.776;2022-07-22T08:28:44;20.80;1.00
19868;DHT22;10096;51.112;6.776;2022-07-22T08:31:14;20.80;1.00
19868;DHT22;10096;51.112;6.776;2022-07-22T08:33:41;20.90;1.00
19868;DHT22;10096;51.112;6.776;2022-07-22T08:36:08;21.00;1.00
19868;DHT22;10096;51.112;6.776;2022-07-22T08:38:37;20.90;1.00
19868;DHT22;10096;51.112;6.776;2022-07-22T08:41:06;20.90;1.00
19868;DHT22;10096;51.112;6.776;2022-07-22T08:43:36;20.90;1.00
19868;DHT22;10096;51.112;6.776;2022-07-22T08:46:05;21.00;1.00
19868;DHT22;10096;51.112;6.776;2022-07-22T08:48:36;21.00;1.00
19868;DHT22;10096;51.112;6.776;2022-07-22T08:51:03;21.10;1.00
19868;DHT22;10096;51.112;6.776;2022-07-22T08:53:29;20.90;1.00
19868;DHT22;10096;51.112;6.776;2022-07-22T08:55:57;20.90;1.00
19868;DHT22;10096;51.112;6.776;2022-07-22T08:58:24;21.00;1.00
19868;DHT22;10096;51.112;6.776;2022-07-22T09:01:04;21.10;1.00
19868;DHT22;10096;51.112;6.776;2022-07-22T09:03:32;21.30;1.00
19868;DHT22;10096;51.112;6.776;2022-07-22T09:06:00;21.50;1.00
19868;DHT22;10096;51.112;6.776;2022-07-22T09:08:27;21.50;1.00
19868;DHT22;10096;51.112;6.776;2022-07-22T09:10:54;21.70;1.00
19868;DHT22;10096;51.112;6.776;2022-07-22T09:13:23;21.90;1.00
19868;DHT22;10096;51.112;6.776;2022-07-22T09:15:52;22.00;1.00
19868;DHT22;10096;51.112;6.776;2022-07-22T09:18:20;22.40;1.00
19868;DHT22;10096;51.112;6.776;2022-07-22T09:20:49;22.30;1.00
19868;DHT22;10096;51.112;6.776;2022-07-22T09:23:24;22.40;1.00
19868;DHT22;10096;51.112;6.776;2022-07-22T09:25:50;22.40;1.00
19868;DHT22;10096;51.112;6.776;2022-07-22T09:28:19;22.40;1.00
19868;DHT22;10096;51.112;6.776;2022-07-22T09:30:48;22.50;1.00
19868;DHT22;10096;51.112;6.776;2022-07-22T09:33:16;22.20;1.00
19868;DHT22;10096;51.112;6.776;2022-07-22T09:35:44;22.20;1.00
19868;DHT22;10096;51.112;6.776;2022-07-22T09:38:15;22.10;1.00
19868;DHT22;10096;51.112;6.776;2022-07-22T09:40:44;21.80;1.00
19868;DHT22;10096;51.112;6.776;2022-07-22T09:43:13;21.80;1.00
19868;DHT22;10096;51.112;6.776;2022-07-22T09:45:46;21.80;1.00
19868;DHT22;10096;51.112;6.776;2022-07-22T09:48:15;21.90;1.00
19868;DHT22;10096;51.112;6.776;2022-07-22T09:50:44;22.20;1.00
19868;DHT22;10096;51.112;6.776;2022-07-22T09:53:13;22.60;1.00
19868;DHT22;10096;51.112;6.776;2022-07-22T09:55:40;22.60;1.00
19868;DHT22;10096;51.112;6.776;2022-07-22T09:58:07;22.60;1.00
19868;DHT22;10096;51.112;6.776;2022-07-22T10:00:35;22.80;1.00
19868;DHT22;10096;51.112;6.776;2022-07-22T10:03:04;22.80;1.00
19868;DHT22;10096;51.112;6.776;2022-07-22T10:05:33;22.90;1.00
19868;DHT22;10096;51.112;6.776;2022-07-22T10:08:03;23.10;1.00
19868;DHT22;10096;51.112;6.776;2022-07-22T10:10:33;23.20;1.00
19868;DHT22;10096;51.112;6.776;2022-07-22T10:13:01;23.40;1.00
19868;DHT22;10096;51.112;6.776;2022-07-22T10:15:31;23.50;1.00
19868;DHT22;10096;51.112;6.776;2022-07-22T10:18:00;23.70;1.00
19868;DHT22;10096;51.112;6.776;2022-07-22T10:20:30;23.90;99.90
19868;DHT22;10096;51.112;6.776;2022-07-22T10:22:58;24.10;99.90
19868;DHT22;10096;51.112;6.776;2022-07-22T10:25:27;24.10;99.90
19868;DHT22;10096;51.112;6.776;2022-07-22T10:27:58;24.20;99.90
19868;DHT22;10096;51.112;6.776;2022-07-22T10:30:27;24.30;99.90
19868;DHT22;10096;51.112;6.776;2022-07-22T10:33:08;24.40;99.90
19868;DHT22;10096;51.112;6.776;2022-07-22T10:35:37;24.30;99.90
19868;DHT22;10096;51.112;6.776;2022-07-22T10:38:07;24.10;99.90
19868;DHT22;10096;51.112;6.776;2022-07-22T10:40:52;24.20;99.90
19868;DHT22;10096;51.112;6.776;2022-07-22T10:43:22;24.10;99.90
19868;DHT22;10096;51.112;6.776;2022-07-22T10:45:52;24.20;99.90
19868;DHT22;10096;51.112;6.776;2022-07-22T10:48:21;24.30;99.90
19868;DHT22;10096;51.112;6.776;2022-07-22T10:51:07;23.90;99.90
19868;DHT22;10096;51.112;6.776;2022-07-22T10:53:43;24.20;99.90
19868;DHT22;10096;51.112;6.776;2022-07-22T10:56:19;24.20;99.90
19868;DHT22;10096;51.112;6.776;2022-07-22T10:58:53;24.50;99.90
19868;DHT22;10096;51.112;6.776;2022-07-22T11:01:23;24.70;99.90
19868;DHT22;10096;51.112;6.776;2022-07-22T11:03:51;24.80;99.90
19868;DHT22;10096;51.112;6.776;2022-07-22T11:06:22;25.20;99.90
19868;DHT22;10096;51.112;6.776;2022-07-22T11:08:51;25.20;99.90
19868;DHT22;10096;51.112;6.776;2022-07-22T11:11:26;25.30;99.90
19868;DHT22;10096;51.112;6.776;2022-07-22T11:13:59;25.30;99.90
19868;DHT22;10096;51.112;6.776;2022-07-22T11:16:28;25.40;99.90
19868;DHT22;10096;51.112;6.776;2022-07-22T11:18:56;25.50;99.90
19868;DHT22;10096;51.112;6.776;2022-07-22T11:21:26;25.70;99.90
19868;DHT22;10096;51.112;6.776;2022-07-22T11:23:55;25.70;99.90
19868;DHT22;10096;51.112;6.776;2022-07-22T11:26:26;25.60;99.90
19868;DHT22;10096;51.112;6.776;2022-07-22T11:28:59;26.00;99.90
19868;DHT22;10096;51.112;6.776;2022-07-22T11:31:27;25.90;99.90
19868;DHT22;10096;51.112;6.776;2022-07-22T11:34:05;26.00;99.90
19868;DHT22;10096;51.112;6.776;2022-07-22T11:36:34;25.80;99.90
19868;DHT22;10096;51.112;6.776;2022-07-22T11:39:01;25.80;99.90
19868;DHT22;10096;51.112;6.776;2022-07-22T11:41:29;25.80;99.90
19868;DHT22;10096;51.112;6.776;2022-07-22T11:43:58;25.80;99.90
19868;DHT22;10096;51.112;6.776;2022-07-22T11:46:26;25.80;99.90
19868;DHT22;10096;51.112;6.776;2022-07-22T11:48:54;26.00;99.90
19868;DHT22;10096;51.112;6.776;2022-07-22T11:51:28;26.30;99.90
19868;DHT22;10096;51.112;6.776;2022-07-22T11:53:56;26.40;99.90
19868;DHT22;10096;51.112;6.776;2022-07-22T11:56:24;26.20;99.90
19868;DHT22;10096;51.112;6.776;2022-07-22T11:58:52;26.30;99.90
19868;DHT22;10096;51.112;6.776;2022-07-22T12:01:23;26.30;99.90
19868;DHT22;10096;51.112;6.776;2022-07-22T12:03:53;26.40;99.90
19868;DHT22;10096;51.112;6.776;2022-07-22T12:06:22;26.40;99.90
19868;DHT22;10096;51.112;6.776;2022-07-22T12:08:51;26.30;99.90
19868;DHT22;10096;51.112;6.776;2022-07-22T12:11:20;25.90;99.90
19868;DHT22;10096;51.112;6.776;2022-07-22T12:13:50;25.60;99.90
19868;DHT22;10096;51.112;6.776;2022-07-22T12:16:25;25.60;99.90
19868;DHT22;10096;51.112;6.776;2022-07-22T12:18:56;25.50;99.90
19868;DHT22;10096;51.112;6.776;2022-07-22T12:21:25;25.30;99.90
19868;DHT22;10096;51.112;6.776;2022-07-22T12:23:54;25.10;99.90
19868;DHT22;10096;51.112;6.776;2022-07-22T12:26:37;24.70;99.90
19868;DHT22;10096;51.112;6.776;2022-07-22T12:29:24;24.80;99.90
19868;DHT22;10096;51.112;6.776;2022-07-22T12:32:01;25.10;99.90
19868;DHT22;10096;51.112;6.776;2022-07-22T12:34:31;24.90;99.90
19868;DHT22;10096;51.112;6.776;2022-07-22T12:36:59;24.90;99.90
19868;DHT22;10096;51.112;6.776;2022-07-22T12:39:28;25.00;99.90
19868;DHT22;10096;51.112;6.776;2022-07-22T12:41:55;25.10;99.90
19868;DHT22;10096;51.112;6.776;2022-07-22T12:44:24;25.30;99.90
19868;DHT22;10096;51.112;6.776;2022-07-22T12:46:54;25.60;99.90
19868;DHT22;10096;51.112;6.776;2022-07-22T12:49:22;25.70;99.90
19868;DHT22;10096;51.112;6.776;2022-07-22T12:52:09;25.90;99.90
19868;DHT22;10096;51.112;6.776;2022-07-22T12:54:38;26.00;99.90
19868;DHT22;10096;51.112;6.776;2022-07-22T12:57:07;25.90;99.90
19868;DHT22;10096;51.112;6.776;2022-07-22T12:59:35;25.80;99.90
19868;DHT22;10096;51.112;6.776;2022-07-22T13:02:03;25.70;99.90
19868;DHT22;10096;51.112;6.776;2022-07-22T13:04:30;26.10;99.90
19868;DHT22;10096;51.112;6.776;2022-07-22T13:06:58;26.10;99.90
19868;DHT22;10096;51.112;6.776;2022-07-22T13:09:25;26.60;99.90
19868;DHT22;10096;51.112;6.776;2022-07-22T13:11:52;26.40;99.90
19868;DHT22;10096;51.112;6.776;2022-07-22T13:14:19;26.20;99.90
19868;DHT22;10096;51.112;6.776;2022-07-22T13:16:45;26.20;99.90
19868;DHT22;10096;51.112;6.776;2022-07-22T13:19:14;26.00;99.90
19868;DHT22;10096;51.112;6.776;2022-07-22T13:21:41;25.70;99.90
19868;DHT22;10096;51.112;6.776;2022-07-22T13:24:10;25.60;99.90
19868;DHT22;10096;51.112;6.776;2022-07-22T13:26:38;25.50;99.90
19868;DHT22;10096;51.112;6.776;2022-07-22T13:29:05;25.20;99.90
19868;DHT22;10096;51.112;6.776;2022-07-22T13:31:32;25.50;99.90
19868;DHT22;10096;51.112;6.776;2022-07-22T13:33:59;25.70;99.90
19868;DHT22;10096;51.112;6.776;2022-07-22T13:36:28;25.80;99.90
19868;DHT22;10096;51.112;6.776;2022-07-22T13:38:58;26.10;99.90
19868;DHT22;10096;51.112;6.776;2022-07-22T13:41:24;26.30;99.90
19868;DHT22;10096;51.112;6.776;2022-07-22T13:43:51;26.20;99.90
19868;DHT22;10096;51.112;6.776;2022-07-22T13:46:19;26.10;99.90
19868;DHT22;10096;51.112;6.776;2022-07-22T13:48:45;26.00;99.90
19868;DHT22;10096;51.112;6.776;2022-07-22T13:51:12;26.10;99.90
19868;DHT22;10096;51.112;6.776;2022-07-22T13:53:42;25.90;99.90
19868;DHT22;10096;51.112;6.776;2022-07-22T13:56:10;26.00;99.90
19868;DHT22;10096;51.112;6.776;2022-07-22T13:58:38;26.00;99.90
19868;DHT22;10096;51.112;6.776;2022-07-22T14:01:07;26.10;99.90
19868;DHT22;10096;51.112;6.776;2022-07-22T14:03:34;26.00;99.90
19868;DHT22;10096;51.112;6.776;2022-07-22T14:06:01;25.90;99.90
19868;DHT22;10096;51.112;6.776;2022-07-22T14:08:28;25.90;99.90
19868;DHT22;10096;51.112;6.776;2022-07-22T14:10:57;25.80;99.90
19868;DHT22;10096;51.112;6.776;2022-07-22T14:13:24;25.80;99.90
19868;DHT22;10096;51.112;6.776;2022-07-22T14:15:53;25.90;99.90
19868;DHT22;10096;51.112;6.776;2022-07-22T14:18:20;25.60;99.90
19868;DHT22;10096;51.112;6.776;2022-07-22T14:20:48;25.30;99.90
19868;DHT22;10096;51.112;6.776;2022-07-22T14:23:15;25.50;99.90
19868;DHT22;10096;51.112;6.776;2022-07-22T14:25:46;25.60;99.90
19868;DHT22;10096;51.112;6.776;2022-07-22T14:28:14;25.90;99.90
19868;DHT22;10096;51.112;6.776;2022-07-22T14:30:41;25.50;99.90
19868;DHT22;10096;51.112;6.776;2022-07-22T14:33:08;25.60;99.90
19868;DHT22;10096;51.112;6.776;2022-07-22T14:35:35;25.70;99.90
19868;DHT22;10096;51.112;6.776;2022-07-22T14:38:02;25.90;99.90
19868;DHT22;10096;51.112;6.776;2022-07-22T14:40:29;26.00;99.90
19868;DHT22;10096;51.112;6.776;2022-07-22T14:42:56;25.80;99.90
19868;DHT22;10096;51.112;6.776;2022-07-22T14:45:24;25.60;99.90
19868;DHT22;10096;51.112;6.776;2022-07-22T14:47:51;25.60;99.90
19868;DHT22;10096;51.112;6.776;2022-07-22T14:50:18;25.70;99.90
19868;DHT22;10096;51.112;6.776;2022-07-22T14:52:45;25.60;99.90
19868;DHT22;10096;51.112;6.776;2022-07-22T14:55:12;25.60;99.90
19868;DHT22;10096;51.112;6.776;2022-07-22T14:57:39;25.90;99.90
19868;DHT22;10096;51.112;6.776;2022-07-22T15:00:07;25.80;99.90
19868;DHT22;10096;51.112;6.776;2022-07-22T15:02:35;25.90;99.90
19868;DHT22;10096;51.112;6.776;2022-07-22T15:05:03;26.00;99.90
19868;DHT22;10096;51.112;6.776;2022-07-22T15:07:30;26.20;99.90
19868;DHT22;10096;51.112;6.776;2022-07-22T15:09:57;26.20;99.90
19868;DHT22;10096;51.112;6.776;2022-07-22T15:12:24;26.30;99.90
19868;DHT22;10096;51.112;6.776;2022-07-22T15:14:51;26.40;99.90
19868;DHT22;10096;51.112;6.776;2022-07-22T15:17:18;26.60;99.90
19868;DHT22;10096;51.112;6.776;2022-07-22T15:19:46;26.60;99.90
19868;DHT22;10096;51.112;6.776;2022-07-22T15:22:13;26.50;99.90
19868;DHT22;10096;51.112;6.776;2022-07-22T15:24:40;26.40;99.90
19868;DHT22;10096;51.112;6.776;2022-07-22T15:27:07;26.30;99.90
19868;DHT22;10096;51.112;6.776;2022-07-22T15:29:34;26.00;99.90
19868;DHT22;10096;51.112;6.776;2022-07-22T15:32:01;25.90;99.90
19868;DHT22;10096;51.112;6.776;2022-07-22T15:34:31;25.80;99.90
19868;DHT22;10096;51.112;6.776;2022-07-22T15:37:00;25.50;99.90
19868;DHT22;10096;51.112;6.776;2022-07-22T15:39:27;25.60;99.90